Time;durP1;ratioP1;P1;durP2;ratioP2;P2;SDS_P1;SDS_P2;PMS_P1;PMS_P2;Temp;Humidity;BMP_temperature;BMP_pressure;BME280_temperature;BME280_humidity;BME280_pressure;Samples;Min_cycle;Max_cycle;Signal;HPM_P1;HPM_P2
2022/08/02 00:00:58;;;;;;;4.30;2.85;;;26.80;99.90;;;;;;1749608;80;21248;-79
2022/08/02 00:03:28;;;;;;;6.25;3.47;;;26.80;99.90;;;;;;1755606;80;21228;-78
2022/08/02 00:06:01;;;;;;;5.55;2.75;;;26.80;99.90;;;;;;1695565;83;21193;-78
2022/08/02 00:08:32;;;;;;;6.25;2.90;;;26.80;99.90;;;;;;1746552;81;21135;-78
2022/08/02 00:11:03;;;;;;;4.58;2.83;;;26.80;99.90;;;;;;1753313;80;21095;-78
2022/08/02 00:13:34;;;;;;;5.65;3.17;;;26.80;99.90;;;;;;1750037;81;21198;-78
2022/08/02 00:16:05;;;;;;;4.25;2.80;;;26.80;99.90;;;;;;1746699;81;21273;-78
2022/08/02 00:18:36;;;;;;;8.88;3.50;;;26.90;99.90;;;;;;1760109;81;21111;-80
2022/08/02 00:21:08;;;;;;;6.20;3.02;;;26.90;99.90;;;;;;1754456;80;21158;-78
2022/08/02 00:23:40;;;;;;;5.15;2.70;;;26.90;99.90;;;;;;1756586;81;21705;-78
2022/08/02 00:26:12;;;;;;;7.03;2.92;;;26.90;99.90;;;;;;1723927;82;21503;-79
2022/08/02 00:28:42;;;;;;;5.58;3.20;;;26.90;99.90;;;;;;1766970;80;21173;-79
2022/08/02 00:31:13;;;;;;;6.08;3.22;;;26.90;99.90;;;;;;1748661;81;21311;-80
2022/08/02 00:33:44;;;;;;;5.05;3.00;;;27.00;99.90;;;;;;1747534;81;21662;-79
2022/08/02 00:36:17;;;;;;;5.08;3.00;;;27.00;99.90;;;;;;1748887;81;21154;-79
2022/08/02 00:38:49;;;;;;;4.47;3.08;;;27.00;99.90;;;;;;1725288;82;21174;-80
2022/08/02 00:41:22;;;;;;;4.50;3.27;;;27.00;99.90;;;;;;1751120;80;21252;-78
2022/08/02 00:43:53;;;;;;;6.25;3.30;;;27.10;99.90;;;;;;1749725;81;21238;-70
2022/08/02 00:46:24;;;;;;;7.37;3.37;;;27.10;99.90;;;;;;1750102;81;21145;-70
2022/08/02 00:48:55;;;;;;;8.05;3.72;;;27.10;99.90;;;;;;1747562;80;21130;-69
2022/08/02 00:51:25;;;;;;;6.90;3.92;;;27.10;99.90;;;;;;1744016;80;21193;-69
2022/08/02 00:53:57;;;;;;;5.15;3.22;;;27.10;99.90;;;;;;1674183;84;21664;-69
2022/08/02 00:56:28;;;;;;;4.58;2.90;;;27.20;99.90;;;;;;1746015;81;21601;-70
2022/08/02 00:58:59;;;;;;;6.37;3.67;;;27.20;99.90;;;;;;1751592;80;21175;-70
2022/08/02 01:01:40;;;;;;;7.05;3.67;;;27.20;99.90;;;;;;1699552;82;21263;-70
2022/08/02 01:04:02;;;;;;;5.75;3.83;;;27.30;99.90;;;;;;1745820;82;21234;-70
2022/08/02 01:06:34;;;;;;;8.03;3.42;;;27.30;99.90;;;;;;1739243;82;21270;-70
2022/08/02 01:09:05;;;;;;;3.98;2.90;;;27.30;99.90;;;;;;1744160;82;21116;-71
2022/08/02 01:11:37;;;;;;;5.95;2.80;;;27.40;99.90;;;;;;1745271;81;21712;-70
2022/08/02 01:14:10;;;;;;;4.10;2.80;;;27.40;99.90;;;;;;1739584;81;21218;-71
2022/08/02 01:16:43;;;;;;;8.08;3.17;;;27.40;99.90;;;;;;1743042;82;21128;-70
2022/08/02 01:19:19;;;;;;;5.43;3.70;;;27.40;99.90;;;;;;1740303;82;21222;-71
2022/08/02 01:21:52;;;;;;;6.50;2.90;;;27.40;99.90;;;;;;1743851;81;21170;-70
2022/08/02 01:24:26;;;;;;;5.30;3.10;;;27.40;99.90;;;;;;1745254;82;21722;-70
2022/08/02 01:26:59;;;;;;;3.83;3.12;;;27.50;99.90;;;;;;1737913;81;21708;-69
2022/08/02 01:29:36;;;;;;;4.60;2.80;;;27.50;99.90;;;;;;1768463;79;21922;-69
2022/08/02 01:32:09;;;;;;;5.35;3.20;;;27.60;99.90;;;;;;1775411;79;21254;-70
2022/08/02 01:34:44;;;;;;;7.03;3.00;;;27.70;99.90;;;;;;1778898;79;21217;-70
2022/08/02 01:37:18;;;;;;;3.90;2.95;;;27.70;99.90;;;;;;1743027;81;21707;-70
2022/08/02 01:39:52;;;;;;;5.03;3.25;;;27.70;99.90;;;;;;1766535;79;21243;-70
2022/08/02 01:42:25;;;;;;;5.30;3.30;;;27.80;99.90;;;;;;1764234;80;21145;-71
2022/08/02 01:44:57;;;;;;;5.72;3.42;;;27.80;99.90;;;;;;1778825;79;21149;-71
2022/08/02 01:47:30;;;;;;;5.83;3.10;;;27.90;99.90;;;;;;1767099;79;21192;-71
2022/08/02 01:50:03;;;;;;;5.08;2.72;;;28.10;99.90;;;;;;1725841;81;21742;-70
2022/08/02 01:52:39;;;;;;;4.40;2.92;;;28.10;99.90;;;;;;1765988;79;21617;-72
2022/08/02 01:55:14;;;;;;;3.77;2.72;;;28.20;99.90;;;;;;1769100;80;21089;-71
2022/08/02 01:57:48;;;;;;;5.25;2.20;;;28.20;99.90;;;;;;1772014;80;21759;-70
2022/08/02 02:00:31;;;;;;;3.12;2.40;;;28.20;99.90;;;;;;1772273;79;21233;-70
2022/08/02 02:03:00;;;;;;;4.70;2.50;;;28.20;99.90;;;;;;1763193;79;22749;-71
2022/08/02 02:05:35;;;;;;;3.87;2.40;;;28.30;99.90;;;;;;1762139;80;21597;-73
2022/08/02 02:08:09;;;;;;;4.55;2.52;;;28.40;99.90;;;;;;1755316;80;21158;-71
2022/08/02 02:10:42;;;;;;;7.47;2.62;;;28.40;99.90;;;;;;1750611;81;21130;-70
2022/08/02 02:13:18;;;;;;;4.78;2.55;;;28.60;99.90;;;;;;1748535;81;21126;-69
2022/08/02 02:15:53;;;;;;;4.33;2.17;;;28.80;99.90;;;;;;1756729;81;21612;-71
2022/08/02 02:18:27;;;;;;;4.40;1.92;;;28.80;99.90;;;;;;1746436;81;22048;-70
2022/08/02 02:21:00;;;;;;;4.12;3.08;;;28.90;99.90;;;;;;1697598;83;21151;-69
2022/08/02 02:23:31;;;;;;;4.75;2.25;;;28.90;99.90;;;;;;1726999;82;21276;-70
2022/08/02 02:26:08;;;;;;;5.60;2.50;;;29.00;99.90;;;;;;1761739;80;21110;-69
2022/08/02 02:28:40;;;;;;;4.03;2.40;;;29.00;99.90;;;;;;1778357;80;21549;-70
2022/08/02 02:31:14;;;;;;;5.37;2.60;;;28.90;99.90;;;;;;1765056;81;21173;-71
2022/08/02 02:33:47;;;;;;;3.80;2.45;;;28.80;99.90;;;;;;1760736;80;21235;-71
2022/08/02 02:36:21;;;;;;;4.62;2.50;;;28.70;99.90;;;;;;1746218;82;21708;-70
2022/08/02 02:38:52;;;;;;;5.33;2.70;;;28.60;99.90;;;;;;1765870;80;21254;-69
2022/08/02 02:41:25;;;;;;;3.85;2.20;;;28.60;99.90;;;;;;1760898;81;21255;-70
2022/08/02 02:44:00;;;;;;;6.40;2.25;;;28.50;99.90;;;;;;1775805;80;21201;-69
2022/08/02 02:46:32;;;;;;;4.10;2.30;;;28.60;99.90;;;;;;1774649;80;21640;-69
2022/08/02 02:49:04;;;;;;;6.08;2.60;;;28.60;99.90;;;;;;1764379;80;21648;-69
2022/08/02 02:51:35;;;;;;;5.78;1.90;;;28.70;99.90;;;;;;1748469;81;21226;-69
2022/08/02 02:54:08;;;;;;;5.60;1.90;;;28.80;99.90;;;;;;1766218;80;21161;-69
2022/08/02 02:56:42;;;;;;;4.92;1.90;;;29.00;99.20;;;;;;1750614;81;21185;-69
2022/08/02 02:59:14;;;;;;;3.12;2.12;;;29.20;99.00;;;;;;1766080;80;21177;-70
2022/08/02 03:01:45;;;;;;;3.45;1.80;;;29.30;98.90;;;;;;1753049;81;21167;-71
2022/08/02 03:04:18;;;;;;;2.65;2.02;;;29.50;98.60;;;;;;1706838;83;21303;-71
2022/08/02 03:06:50;;;;;;;4.28;2.22;;;29.60;97.70;;;;;;1752984;81;21177;-70
2022/08/02 03:09:21;;;;;;;4.00;1.87;;;29.70;97.80;;;;;;1751898;80;21186;-70
2022/08/02 03:11:54;;;;;;;3.10;1.95;;;29.70;97.60;;;;;;1745701;81;21195;-69
2022/08/02 03:14:26;;;;;;;3.87;1.80;;;29.80;97.30;;;;;;1748675;81;21239;-70
2022/08/02 03:16:58;;;;;;;2.98;1.60;;;29.80;96.90;;;;;;1753211;80;21190;-70
2022/08/02 03:19:31;;;;;;;3.20;1.50;;;29.70;96.00;;;;;;1748040;81;21145;-69
2022/08/02 03:22:03;;;;;;;3.85;2.25;;;29.60;96.40;;;;;;1874305;74;21219;-70
2022/08/02 03:24:34;;;;;;;4.83;1.87;;;29.60;96.50;;;;;;1896915;75;21154;-71
2022/08/02 03:27:05;;;;;;;3.98;1.80;;;29.70;96.60;;;;;;1879071;75;21645;-71
2022/08/02 03:29:36;;;;;;;2.10;1.75;;;29.70;96.60;;;;;;1842586;78;21227;-72
2022/08/02 03:32:07;;;;;;;3.00;1.90;;;29.60;96.60;;;;;;1842493;78;21238;-70
2022/08/02 03:34:44;;;;;;;3.47;2.17;;;29.50;97.10;;;;;;1825177;77;21136;-69
2022/08/02 03:37:26;;;;;;;5.72;2.65;;;29.50;97.80;;;;;;1855431;75;22172;-69
2022/08/02 03:39:51;;;;;;;4.00;2.70;;;29.50;99.00;;;;;;1836818;77;21139;-68
2022/08/02 03:42:24;;;;;;;7.12;2.60;;;29.30;99.10;;;;;;1854036;76;21183;-70
2022/08/02 03:44:56;;;;;;;6.83;2.58;;;29.20;99.90;;;;;;1846162;77;21254;-71
2022/08/02 03:47:29;;;;;;;4.87;2.52;;;29.10;99.90;;;;;;1854561;74;21704;-72
2022/08/02 03:50:01;;;;;;;7.45;3.10;;;29.00;99.90;;;;;;1856329;77;21218;-70
2022/08/02 03:52:33;;;;;;;4.78;2.12;;;28.90;99.90;;;;;;1855986;77;21198;-71
2022/08/02 03:55:07;;;;;;;5.45;2.35;;;28.90;99.90;;;;;;1844584;77;21245;-69
2022/08/02 03:57:39;;;;;;;4.00;2.15;;;28.90;99.90;;;;;;1854369;77;21229;-69
2022/08/02 04:00:14;;;;;;;4.10;2.37;;;28.80;99.90;;;;;;1898719;75;21084;-71
2022/08/02 04:02:44;;;;;;;5.28;2.22;;;28.80;99.90;;;;;;1868158;77;21055;-70
2022/08/02 04:05:22;;;;;;;4.58;2.72;;;28.80;99.90;;;;;;1876171;76;21691;-70
2022/08/02 04:07:56;;;;;;;6.22;2.50;;;28.80;99.90;;;;;;1912470;75;21156;-71
2022/08/02 04:11:29;;;;;;;4.30;2.30;;;28.80;99.90;;;;;;1868111;75;21149;-70
2022/08/02 04:13:01;;;;;;;4.50;2.62;;;28.80;99.90;;;;;;1867238;76;21697;-70
2022/08/02 04:15:37;;;;;;;3.60;2.40;;;28.70;99.90;;;;;;1908793;75;21214;-69
2022/08/02 04:18:12;;;;;;;4.20;2.12;;;28.70;99.90;;;;;;1862555;77;21126;-70
2022/08/02 04:20:45;;;;;;;2.90;2.08;;;28.70;99.90;;;;;;1878926;76;21658;-68
2022/08/02 04:23:18;;;;;;;2.90;1.92;;;28.70;99.90;;;;;;1900724;75;21203;-69
2022/08/02 04:25:51;;;;;;;2.83;1.77;;;28.80;99.90;;;;;;1869928;77;21126;-69
2022/08/02 04:28:30;;;;;;;;;;;28.80;99.90;;;;;;1872360;77;21212;-70
2022/08/02 04:31:00;;;;;;;3.92;2.12;;;28.80;99.90;;;;;;1866464;76;20222;-70
2022/08/02 04:33:33;;;;;;;3.65;1.52;;;28.80;99.90;;;;;;1864400;75;21137;-69
2022/08/02 04:36:13;;;;;;;7.62;2.00;;;28.80;99.90;;;;;;1869509;77;21840;-69
2022/08/02 04:38:44;;;;;;;3.95;1.85;;;28.70;99.90;;;;;;1863266;76;21129;-70
2022/08/02 04:41:17;;;;;;;3.92;2.58;;;28.70;99.90;;;;;;1868088;77;21224;-70
2022/08/02 04:43:48;;;;;;;3.60;2.85;;;28.60;99.90;;;;;;1869605;77;21631;-70
2022/08/02 04:46:19;;;;;;;4.72;3.22;;;28.40;99.90;;;;;;1868113;75;21695;-69
2022/08/02 04:48:52;;;;;;;4.42;3.08;;;28.30;99.90;;;;;;1869887;77;21691;-69
2022/08/02 04:51:24;;;;;;;3.60;2.33;;;28.20;99.90;;;;;;1865719;77;21705;-68
2022/08/02 04:53:56;;;;;;;3.60;2.80;;;28.00;99.90;;;;;;1869335;74;21179;-70
2022/08/02 04:56:29;;;;;;;3.95;2.58;;;27.90;99.90;;;;;;1867838;75;21145;-70
2022/08/02 04:58:59;;;;;;;3.55;2.90;;;27.80;99.90;;;;;;1869795;77;21211;-69
2022/08/02 05:01:34;;;;;;;3.33;2.47;;;27.70;99.90;;;;;;1853070;76;21578;-70
2022/08/02 05:04:06;;;;;;;4.47;3.12;;;27.70;99.90;;;;;;1815042;78;21166;-70
2022/08/02 05:06:37;;;;;;;4.62;2.45;;;27.70;99.90;;;;;;1854118;76;21116;-69
2022/08/02 05:09:08;;;;;;;4.80;2.62;;;27.70;99.90;;;;;;1911502;75;21545;-69
2022/08/02 05:11:48;;;;;;;6.80;3.02;;;27.70;99.90;;;;;;1865794;77;21633;-69
2022/08/02 05:14:21;;;;;;;3.98;2.47;;;27.70;99.90;;;;;;1854692;76;21665;-70
2022/08/02 05:16:52;;;;;;;4.08;2.62;;;27.80;99.90;;;;;;1913623;75;21125;-70
2022/08/02 05:19:23;;;;;;;3.30;2.83;;;27.80;99.90;;;;;;1874642;74;21125;-71
2022/08/02 05:21:58;;;;;;;7.03;3.10;;;27.90;99.90;;;;;;1875458;74;21051;-71
2022/08/02 05:24:28;;;;;;;3.67;3.20;;;28.00;99.90;;;;;;1874721;75;21594;-70
2022/08/02 05:26:59;;;;;;;4.30;3.47;;;28.10;99.90;;;;;;1874173;74;21141;-70
2022/08/02 05:29:31;;;;;;;7.70;4.10;;;28.20;99.90;;;;;;1875783;74;21209;-70
2022/08/02 05:32:02;;;;;;;3.72;2.80;;;28.30;99.90;;;;;;1838265;78;21108;-72
2022/08/02 05:34:33;;;;;;;3.37;2.52;;;28.40;99.90;;;;;;1826876;78;21189;-70
2022/08/02 05:37:05;;;;;;;3.98;2.50;;;28.40;99.90;;;;;;1878698;76;21641;-69
2022/08/02 05:39:37;;;;;;;5.05;2.65;;;28.40;99.90;;;;;;1902289;73;21144;-71
2022/08/02 05:42:09;;;;;;;5.08;2.90;;;28.40;99.90;;;;;;1908932;74;21163;-71
2022/08/02 05:44:41;;;;;;;3.02;2.58;;;28.40;99.90;;;;;;1864802;76;21179;-71
2022/08/02 05:47:12;;;;;;;2.75;1.92;;;28.50;99.90;;;;;;1912177;75;21576;-71
2022/08/02 05:49:43;;;;;;;6.28;4.17;;;28.50;99.90;;;;;;1912699;75;21656;-71
2022/08/02 05:52:16;;;;;;;4.22;2.70;;;28.50;99.90;;;;;;1869838;75;21635;-73
2022/08/02 05:54:50;;;;;;;5.37;2.20;;;28.60;99.90;;;;;;1836710;78;21573;-79
2022/08/02 05:57:22;;;;;;;3.50;1.80;;;28.80;99.90;;;;;;1878486;75;21567;-79
2022/08/02 05:59:55;;;;;;;4.12;1.90;;;29.00;99.90;;;;;;1910533;73;21164;-80
2022/08/02 06:02:29;;;;;;;4.33;1.90;;;29.20;99.90;;;;;;1868874;75;21144;-78
2022/08/02 06:05:02;;;;;;;2.65;1.90;;;29.40;99.80;;;;;;1877468;75;21101;-79
2022/08/02 06:07:36;;;;;;;3.02;2.47;;;29.60;99.50;;;;;;1911671;74;21584;-77
2022/08/02 06:10:09;;;;;;;2.95;2.22;;;29.70;99.30;;;;;;1869922;76;21146;-78
2022/08/02 06:12:42;;;;;;;3.02;2.20;;;29.90;98.60;;;;;;1879221;76;21141;-78
2022/08/02 06:15:15;;;;;;;4.95;2.20;;;30.00;98.70;;;;;;1911007;74;21129;-78
2022/08/02 06:17:47;;;;;;;3.65;2.00;;;30.20;98.90;;;;;;1869148;77;21215;-79
2022/08/02 06:20:20;;;;;;;4.28;2.42;;;30.30;98.10;;;;;;1878238;76;21156;-78
2022/08/02 06:22:52;;;;;;;4.35;2.35;;;30.40;97.50;;;;;;1899699;75;21156;-79
2022/08/02 06:25:23;;;;;;;4.42;2.20;;;30.30;98.00;;;;;;1869346;77;21118;-79
2022/08/02 06:28:01;;;;;;;4.55;2.20;;;30.30;98.20;;;;;;1857485;77;21207;-79
2022/08/02 06:30:34;;;;;;;4.80;2.35;;;30.20;97.90;;;;;;1869681;75;21538;-78
2022/08/02 06:33:05;;;;;;;4.08;2.20;;;30.20;97.40;;;;;;1870218;77;21141;-79
2022/08/02 06:35:38;;;;;;;3.05;2.20;;;30.20;97.80;;;;;;1886366;75;21106;-79
2022/08/02 06:38:31;;;;;;;3.45;2.20;;;30.20;98.20;;;;;;1891946;73;21630;-78
2022/08/02 06:41:05;;;;;;;3.10;2.00;;;30.30;98.70;;;;;;1870865;75;21188;-78
2022/08/02 06:43:38;;;;;;;3.45;2.10;;;30.30;97.90;;;;;;1870977;75;21231;-79
2022/08/02 06:46:09;;;;;;;3.10;1.90;;;30.30;98.10;;;;;;1887234;76;21601;-79
2022/08/02 06:48:42;;;;;;;4.45;2.33;;;30.20;97.60;;;;;;1880165;73;21117;-78
2022/08/02 06:51:13;;;;;;;4.80;1.72;;;30.20;97.90;;;;;;1889344;76;21552;-77
2022/08/02 06:53:45;;;;;;;3.27;1.70;;;30.20;97.10;;;;;;1889597;76;21222;-78
2022/08/02 06:56:16;;;;;;;5.67;3.65;;;30.10;97.10;;;;;;1885836;76;21135;-77
2022/08/02 06:58:47;;;;;;;4.40;2.67;;;30.00;97.70;;;;;;1877196;76;21160;-78
2022/08/02 07:01:20;;;;;;;6.85;2.20;;;29.80;98.20;;;;;;1877120;76;21133;-78
2022/08/02 07:03:51;;;;;;;2.62;1.65;;;29.60;98.40;;;;;;1873727;76;21212;-78
2022/08/02 07:06:24;;;;;;;2.87;1.30;;;29.50;97.40;;;;;;1838668;76;21644;-79
2022/08/02 07:08:56;;;;;;;2.30;1.40;;;29.40;97.00;;;;;;1877221;76;21239;-78
2022/08/02 07:11:28;;;;;;;3.50;1.77;;;29.30;97.30;;;;;;1877219;76;21164;-78
2022/08/02 07:13:59;;;;;;;1.45;0.80;;;29.20;97.90;;;;;;1877224;76;21600;-77
2022/08/02 07:16:30;;;;;;;3.02;1.00;;;29.10;97.70;;;;;;1877051;76;21588;-78
2022/08/02 07:19:01;;;;;;;1.90;0.80;;;29.00;97.70;;;;;;1877387;76;21678;-79
2022/08/02 07:21:32;;;;;;;3.22;1.25;;;28.90;98.00;;;;;;1877493;76;21192;-79
2022/08/02 07:24:04;;;;;;;2.45;1.00;;;28.70;98.10;;;;;;1873629;75;21236;-78
2022/08/02 07:26:35;;;;;;;2.55;1.10;;;28.60;98.60;;;;;;1877574;76;21586;-79
2022/08/02 07:29:10;;;;;;;2.70;1.20;;;28.40;99.00;;;;;;1872999;73;22017;-78
2022/08/02 07:31:40;;;;;;;2.83;1.25;;;28.30;99.80;;;;;;1838522;76;21183;-79
2022/08/02 07:34:11;;;;;;;1.75;0.70;;;28.30;99.90;;;;;;1837475;76;21234;-78
2022/08/02 07:36:42;;;;;;;2.30;0.70;;;28.20;99.90;;;;;;1874037;76;21082;-78
2022/08/02 07:39:14;;;;;;;1.72;0.65;;;28.20;99.90;;;;;;1883948;76;21157;-79
2022/08/02 07:41:46;;;;;;;2.52;1.30;;;28.20;99.90;;;;;;1874543;76;21168;-78
2022/08/02 07:44:17;;;;;;;3.05;1.05;;;28.10;99.90;;;;;;1856487;77;21152;-78
2022/08/02 07:46:48;;;;;;;1.67;0.80;;;28.10;99.90;;;;;;1856785;77;21139;-78
2022/08/02 07:49:19;;;;;;;2.90;1.30;;;28.20;99.90;;;;;;1847206;78;21159;-77
2022/08/02 07:51:50;;;;;;;3.47;0.78;;;28.20;99.90;;;;;;1824440;78;21117;-78
2022/08/02 07:54:22;;;;;;;1.87;0.95;;;28.30;99.90;;;;;;1854182;77;21122;-79
2022/08/02 07:56:54;;;;;;;2.08;0.80;;;28.40;99.90;;;;;;1856619;77;21093;-78
2022/08/02 07:59:26;;;;;;;3.62;1.00;;;28.60;99.90;;;;;;1856478;77;21206;-78
2022/08/02 08:01:57;;;;;;;1.92;0.90;;;28.60;99.70;;;;;;1856755;77;21371;-78
2022/08/02 08:04:29;;;;;;;3.08;1.17;;;28.70;99.70;;;;;;1856590;77;21672;-78
2022/08/02 08:07:04;;;;;;;3.60;1.47;;;28.70;99.80;;;;;;1853617;76;21767;-79
2022/08/02 08:09:42;;;;;;;2.92;1.37;;;28.70;99.90;;;;;;1821246;77;21698;-78
2022/08/02 08:12:08;;;;;;;2.58;1.60;;;28.70;99.90;;;;;;1856939;77;21165;-78
2022/08/02 08:14:40;;;;;;;5.25;2.17;;;28.70;99.90;;;;;;1855724;77;21158;-78
2022/08/02 08:17:11;;;;;;;5.22;1.70;;;28.60;99.90;;;;;;1825096;77;21167;-78
2022/08/02 08:19:45;;;;;;;4.05;1.80;;;28.50;99.90;;;;;;1879611;76;21203;-77
2022/08/02 08:22:16;;;;;;;2.22;1.50;;;28.40;99.90;;;;;;1855715;76;21221;-77
2022/08/02 08:24:49;;;;;;;2.42;1.57;;;28.40;99.90;;;;;;1880281;76;22100;-78
2022/08/02 08:27:21;;;;;;;3.58;1.45;;;28.30;99.90;;;;;;1857115;77;21892;-78
2022/08/02 08:29:52;;;;;;;2.52;1.35;;;28.30;99.90;;;;;;1880150;75;21113;-77
2022/08/02 08:32:23;;;;;;;2.55;1.30;;;28.20;99.90;;;;;;1880024;76;21585;-79
2022/08/02 08:34:54;;;;;;;2.37;1.30;;;28.20;99.90;;;;;;1879742;76;21522;-76
2022/08/02 08:37:26;;;;;;;3.47;1.82;;;28.20;99.90;;;;;;1886191;76;21240;-76
2022/08/02 08:39:57;;;;;;;2.65;1.50;;;28.20;99.80;;;;;;1869329;76;22032;-77
2022/08/02 08:42:30;;;;;;;3.05;1.30;;;28.20;99.80;;;;;;1882242;74;21160;-77
2022/08/02 08:45:01;;;;;;;2.65;1.70;;;28.20;99.80;;;;;;1848725;77;21654;-78
2022/08/02 08:47:33;;;;;;;2.25;1.22;;;28.20;99.60;;;;;;1847045;76;21556;-78
2022/08/02 08:50:06;;;;;;;4.72;1.10;;;28.20;99.40;;;;;;1887785;75;21131;-77
2022/08/02 08:52:41;;;;;;;3.62;1.87;;;28.20;99.40;;;;;;1855456;76;21533;-77
2022/08/02 08:55:14;;;;;;;3.75;1.37;;;28.20;99.50;;;;;;1793838;79;21900;-78
2022/08/02 08:57:46;;;;;;;4.25;1.82;;;28.10;99.70;;;;;;1877440;76;22179;-78
2022/08/02 09:00:20;;;;;;;4.42;1.90;;;28.10;99.90;;;;;;1869786;75;21633;-78
2022/08/02 09:02:50;;;;;;;5.78;1.67;;;28.10;99.90;;;;;;1876315;76;21621;-78
2022/08/02 09:05:21;;;;;;;2.72;1.62;;;28.10;99.90;;;;;;1876483;76;21163;-78
2022/08/02 09:07:53;;;;;;;2.55;1.52;;;28.00;99.90;;;;;;1862361;76;21181;-78
2022/08/02 09:10:26;;;;;;;2.85;1.80;;;28.00;99.90;;;;;;1873197;76;21215;-78
2022/08/02 09:13:10;;;;;;;2.83;1.80;;;28.00;99.90;;;;;;1865743;76;21623;-79
2022/08/02 09:15:45;;;;;;;3.17;1.95;;;27.90;99.90;;;;;;1870933;75;21160;-77
2022/08/02 09:18:17;;;;;;;2.60;2.00;;;27.80;99.90;;;;;;1874966;76;21216;-79
2022/08/02 09:20:53;;;;;;;7.67;4.67;;;27.80;99.90;;;;;;1870593;76;21199;-80
2022/08/02 09:23:29;;;;;;;3.83;2.75;;;27.80;99.90;;;;;;1878092;75;21097;-78
2022/08/02 09:26:05;;;;;;;4.50;2.87;;;27.80;99.90;;;;;;1877633;76;21617;-78
2022/08/02 09:28:39;;;;;;;3.58;2.45;;;27.80;99.90;;;;;;1877079;76;21588;-78
2022/08/02 09:31:12;;;;;;;5.35;3.08;;;27.80;99.90;;;;;;1875919;76;21134;-78
2022/08/02 09:33:45;;;;;;;4.30;2.50;;;27.80;99.90;;;;;;1870001;76;21625;-77
2022/08/02 09:36:17;;;;;;;4.97;2.80;;;27.80;99.90;;;;;;1867654;76;21550;-78
2022/08/02 09:38:50;;;;;;;5.83;2.58;;;27.80;99.90;;;;;;1871163;75;21673;-78
2022/08/02 09:41:24;;;;;;;7.35;2.62;;;27.90;99.90;;;;;;1859711;76;22025;-78
2022/08/02 09:43:58;;;;;;;5.53;2.37;;;27.90;99.90;;;;;;1873920;76;21094;-77
2022/08/02 09:46:32;;;;;;;5.85;2.70;;;27.80;99.90;;;;;;1876725;76;21094;-77
2022/08/02 09:49:06;;;;;;;4.22;2.47;;;27.90;99.90;;;;;;1878178;75;21165;-78
2022/08/02 09:51:39;;;;;;;4.00;2.65;;;27.90;99.90;;;;;;1877679;75;21483;-78
2022/08/02 09:54:12;;;;;;;5.78;3.00;;;27.90;99.90;;;;;;1875162;75;21165;-77
2022/08/02 09:56:46;;;;;;;3.87;2.30;;;27.90;99.90;;;;;;1837153;77;21142;-78
2022/08/02 09:59:23;;;;;;;2.75;1.95;;;27.90;99.90;;;;;;1829870;76;21660;-79
2022/08/02 10:01:54;;;;;;;;;;;27.90;99.90;;;;;;1877403;76;21585;-79
2022/08/02 10:04:29;;;;;;;6.42;2.30;;;27.90;99.90;;;;;;1873523;75;20199;-78
2022/08/02 10:07:03;;;;;;;4.60;2.30;;;28.00;99.90;;;;;;1877237;74;21231;-79
2022/08/02 10:09:35;;;;;;;4.92;2.30;;;27.90;99.90;;;;;;1868760;76;21141;-78
2022/08/02 10:12:07;;;;;;;5.37;4.15;;;28.00;99.90;;;;;;1854834;76;21259;-78
2022/08/02 10:14:40;;;;;;;5.72;4.87;;;28.00;99.90;;;;;;1875402;75;21117;-78
2022/08/02 10:17:11;;;;;;;4.75;3.60;;;28.00;99.90;;;;;;1831856;76;21192;-79
2022/08/02 10:19:42;;;;;;;6.58;4.10;;;28.00;99.90;;;;;;1863437;76;21153;-80
2022/08/02 10:22:16;;;;;;;6.60;3.40;;;28.10;99.90;;;;;;1836315;75;21177;-77
2022/08/02 10:24:50;;;;;;;4.83;2.85;;;28.10;99.90;;;;;;1844912;78;21111;-79
2022/08/02 10:27:27;;;;;;;7.47;3.12;;;28.20;99.90;;;;;;1845125;78;21488;-80
2022/08/02 10:30:00;;;;;;;5.75;3.05;;;28.20;99.90;;;;;;1818138;78;21133;-79
2022/08/02 10:32:54;;;;;;;7.47;4.67;;;28.20;99.90;;;;;;1886294;76;21148;-78
2022/08/02 10:35:26;;;;;;;7.17;5.30;;;28.30;99.90;;;;;;1887233;76;21665;-77
2022/08/02 10:38:17;;;;;;;10.28;6.17;;;28.30;99.90;;;;;;1887017;76;21103;-78
2022/08/02 10:40:49;;;;;;;11.28;7.42;;;28.30;99.90;;;;;;1796089;78;21220;-78
2022/08/02 10:43:27;;;;;;;11.88;7.47;;;28.30;99.90;;;;;;1767230;81;21179;-78
2022/08/02 10:46:15;;;;;;;8.10;5.58;;;28.30;99.90;;;;;;1797452;78;21133;-79
2022/08/02 10:48:48;;;;;;;14.30;9.35;;;28.30;99.90;;;;;;1830302;77;21137;-77
2022/08/02 10:51:19;;;;;;;14.03;6.03;;;28.40;99.90;;;;;;1797894;78;21141;-77
2022/08/02 10:53:54;;;;;;;7.62;4.53;;;28.30;99.90;;;;;;1829987;77;21122;-78
2022/08/02 10:56:27;;;;;;;4.33;2.60;;;28.40;99.90;;;;;;1867224;76;21628;-78
2022/08/02 10:59:02;;;;;;;9.93;2.92;;;28.40;99.90;;;;;;1863519;76;21094;-80
2022/08/02 11:01:38;;;;;;;6.33;2.90;;;28.40;99.90;;;;;;1866708;75;21126;-82
2022/08/02 11:04:16;;;;;;;6.65;2.77;;;28.40;99.90;;;;;;1865235;76;21842;-81
2022/08/02 11:06:50;;;;;;;4.28;2.98;;;28.40;99.90;;;;;;1864361;76;21174;-80
2022/08/02 11:09:33;;;;;;;8.13;3.37;;;28.40;99.90;;;;;;1873353;75;21147;-81
2022/08/02 11:12:03;;;;;;;4.40;3.30;;;28.40;99.90;;;;;;1877679;75;21742;-79
2022/08/02 11:14:37;;;;;;;6.65;3.33;;;28.40;99.90;;;;;;1869966;75;21272;-80
2022/08/02 11:17:08;;;;;;;6.00;2.90;;;28.40;99.90;;;;;;1864600;75;21167;-80
2022/08/02 11:19:42;;;;;;;4.22;2.87;;;28.40;99.90;;;;;;1874706;76;21121;-80
2022/08/02 11:22:17;;;;;;;5.28;2.92;;;28.40;99.90;;;;;;1803532;77;21161;-80
2022/08/02 11:24:48;;;;;;;7.40;3.27;;;28.40;99.90;;;;;;1807348;76;21160;-79
2022/08/02 11:27:21;;;;;;;5.62;2.70;;;28.40;99.90;;;;;;1806825;76;21193;-79
2022/08/02 11:29:54;;;;;;;5.33;3.05;;;28.40;99.90;;;;;;1806455;77;21255;-81
2022/08/02 11:32:26;;;;;;;5.70;3.65;;;28.40;99.90;;;;;;1835062;76;21189;-79
2022/08/02 11:34:59;;;;;;;6.10;3.10;;;28.40;99.90;;;;;;1804600;78;21246;-81
2022/08/02 11:37:35;;;;;;;7.85;3.10;;;28.40;99.90;;;;;;1872102;75;21189;-82
2022/08/02 11:40:09;;;;;;;3.87;2.92;;;28.30;99.90;;;;;;1874838;75;21225;-80
2022/08/02 11:42:44;;;;;;;6.17;3.20;;;28.30;99.90;;;;;;1874514;76;21143;-81
2022/08/02 11:45:21;;;;;;;6.00;2.87;;;28.30;99.90;;;;;;1872585;76;21211;-80
2022/08/02 11:47:54;;;;;;;4.75;3.35;;;28.30;99.90;;;;;;1872824;76;21160;-81
2022/08/02 11:50:43;;;;;;;8.48;3.80;;;28.30;99.90;;;;;;1859253;76;21227;-81
2022/08/02 11:53:16;;;;;;;9.23;3.60;;;28.30;99.90;;;;;;1854764;76;21468;-83
2022/08/02 11:55:47;;;;;;;6.92;3.17;;;28.30;99.90;;;;;;1849990;76;21068;-82
2022/08/02 11:58:21;;;;;;;5.97;3.17;;;28.20;99.90;;;;;;1853680;76;21135;-81
2022/08/02 12:00:54;;;;;;;5.40;2.87;;;28.20;99.90;;;;;;1852869;76;21139;-80
2022/08/02 12:03:45;;;;;;;5.22;2.65;;;28.20;99.90;;;;;;1845005;76;21213;-80
2022/08/02 12:06:18;;;;;;;4.65;2.80;;;28.20;99.90;;;;;;1842758;76;21225;-81
2022/08/02 12:08:50;;;;;;;5.80;2.42;;;28.20;99.90;;;;;;1796541;78;21680;-81
2022/08/02 12:11:22;;;;;;;8.05;3.08;;;28.20;99.90;;;;;;1795470;78;21165;-81
2022/08/02 12:13:54;;;;;;;5.78;2.90;;;28.10;99.90;;;;;;1787115;79;21069;-80
2022/08/02 12:21:33;;;;;;;4.15;2.50;;;28.10;99.90;;;;;;1798976;78;21245;-80
2022/08/02 12:24:04;;;;;;;7.12;2.45;;;28.10;99.90;;;;;;1850444;76;21198;-80
2022/08/02 12:26:37;;;;;;;8.20;2.90;;;28.10;99.90;;;;;;1850187;76;21093;-80
2022/08/02 12:29:15;;;;;;;4.90;2.80;;;28.00;99.90;;;;;;1849919;76;21650;-81
2022/08/02 12:31:48;;;;;;;4.30;2.70;;;28.00;99.90;;;;;;1841766;76;21218;-81
2022/08/02 12:34:22;;;;;;;3.77;2.70;;;28.00;99.90;;;;;;1852088;76;21108;-82
2022/08/02 12:36:57;;;;;;;5.12;2.58;;;28.00;99.90;;;;;;1851024;76;21126;-83
2022/08/02 12:39:30;;;;;;;4.92;2.62;;;28.00;99.90;;;;;;1853480;76;21585;-81
2022/08/02 12:42:02;;;;;;;5.25;2.30;;;28.00;99.90;;;;;;1853178;76;21194;-80
2022/08/02 12:44:33;;;;;;;5.12;2.92;;;28.00;99.90;;;;;;1848620;76;21209;-81
2022/08/02 12:47:08;;;;;;;5.28;3.25;;;28.00;99.90;;;;;;1858734;76;21471;-79
2022/08/02 12:49:39;;;;;;;5.47;2.80;;;28.00;99.90;;;;;;1858861;76;21275;-81
2022/08/02 12:52:13;;;;;;;8.05;3.45;;;28.00;99.90;;;;;;1793789;78;21108;-81
2022/08/02 12:54:44;;;;;;;7.22;2.47;;;28.00;99.90;;;;;;1793050;78;21103;-81
2022/08/02 12:57:18;;;;;;;5.37;2.50;;;28.00;99.90;;;;;;1788378;78;21236;-81
2022/08/02 12:59:51;;;;;;;5.60;2.70;;;28.00;99.90;;;;;;1845388;77;21143;-80
2022/08/02 13:02:25;;;;;;;5.90;2.30;;;27.90;99.90;;;;;;1795854;78;21637;-80
2022/08/02 13:04:56;;;;;;;5.10;2.30;;;28.00;99.90;;;;;;1834025;77;21126;-80
2022/08/02 13:07:28;;;;;;;6.62;2.40;;;28.00;99.90;;;;;;1805307;78;21782;-81
2022/08/02 13:09:59;;;;;;;4.00;2.30;;;28.00;99.90;;;;;;1786502;79;21603;-81
2022/08/02 13:12:33;;;;;;;4.55;2.10;;;27.90;99.90;;;;;;1794194;78;21144;-80
2022/08/02 13:15:05;;;;;;;6.28;2.90;;;28.00;99.90;;;;;;1775853;79;22433;-82
2022/08/02 13:17:38;;;;;;;4.25;2.60;;;28.00;99.90;;;;;;1818223;77;21272;-82
2022/08/02 13:20:21;;;;;;;;;;;;;;;;;;;;;
2022/08/02 13:22:45;;;;;;;5.50;2.90;;;27.90;99.90;;;;;;1818322;77;21133;-82